sensor_id;sensor_type;location;lat;lon;timestamp;pressure;altitude;pressure_sealevel;temperature;humidity
16690;BME280;8458;52.220;9.884;2023-01-16T00:00:34;99078.44;;;5.74;77.17
16690;BME280;8458;52.220;9.884;2023-01-16T00:03:01;99075.69;;;5.79;76.76
16690;BME280;8458;52.220;9.884;2023-01-16T00:05:27;99068.84;;;5.82;77.11
16690;BME280;8458;52.220;9.884;2023-01-16T00:07:54;99067.75;;;5.83;76.98
16690;BME280;8458;52.220;9.884;2023-01-16T00:10:21;99074.59;;;5.80;77.19
16690;BME280;8458;52.220;9.884;2023-01-16T00:12:48;99059.78;;;5.81;76.97
16690;BME280;8458;52.220;9.884;2023-01-16T00:15:15;99055.66;;;5.89;76.63
16690;BME280;8458;52.220;9.884;2023-01-16T00:17:41;99053.72;;;5.89;77.07
16690;BME280;8458;52.220;9.884;2023-01-16T00:20:09;99053.72;;;5.95;76.71
16690;BME280;8458;52.220;9.884;2023-01-16T00:22:36;99045.72;;;5.93;76.10
16690;BME280;8458;52.220;9.884;2023-01-16T00:25:03;99049.31;;;5.88;76.60
16690;BME280;8458;52.220;9.884;2023-01-16T00:27:31;99039.97;;;5.89;76.81
16690;BME280;8458;52.220;9.884;2023-01-16T00:29:57;99038.31;;;5.88;76.51
16690;BME280;8458;52.220;9.884;2023-01-16T00:32:24;99030.63;;;5.96;76.74
16690;BME280;8458;52.220;9.884;2023-01-16T00:34:50;99029.56;;;5.97;76.76
16690;BME280;8458;52.220;9.884;2023-01-16T00:37:17;99021.31;;;5.97;76.61
16690;BME280;8458;52.220;9.884;2023-01-16T00:39:43;99014.69;;;5.98;76.63
16690;BME280;8458;52.220;9.884;2023-01-16T00:42:10;99010.84;;;5.99;76.01
16690;BME280;8458;52.220;9.884;2023-01-16T00:44:38;99007.53;;;5.97;76.21
16690;BME280;8458;52.220;9.884;2023-01-16T00:47:04;99000.09;;;5.92;76.46
16690;BME280;8458;52.220;9.884;2023-01-16T00:49:31;99010.53;;;5.90;76.54
16690;BME280;8458;52.220;9.884;2023-01-16T00:51:57;99005.56;;;5.87;76.53
16690;BME280;8458;52.220;9.884;2023-01-16T00:54:24;99005.34;;;5.99;76.00
16690;BME280;8458;52.220;9.884;2023-01-16T00:56:50;98998.69;;;5.95;76.29
16690;BME280;8458;52.220;9.884;2023-01-16T00:59:17;98998.69;;;5.95;75.99
16690;BME280;8458;52.220;9.884;2023-01-16T01:01:45;98991.56;;;5.93;76.43
16690;BME280;8458;52.220;9.884;2023-01-16T01:04:11;98992.09;;;5.90;76.54
16690;BME280;8458;52.220;9.884;2023-01-16T01:06:38;98991.84;;;5.92;76.47
16690;BME280;8458;52.220;9.884;2023-01-16T01:09:05;98986.59;;;5.90;77.32
16690;BME280;8458;52.220;9.884;2023-01-16T01:11:31;99001.72;;;5.93;78.14
16690;BME280;8458;52.220;9.884;2023-01-16T01:13:58;98992.66;;;5.98;78.10
16690;BME280;8458;52.220;9.884;2023-01-16T01:16:24;98990.16;;;5.91;78.41
16690;BME280;8458;52.220;9.884;2023-01-16T01:18:52;98988.78;;;5.88;79.06
16690;BME280;8458;52.220;9.884;2023-01-16T01:21:19;98985.22;;;5.88;79.62
16690;BME280;8458;52.220;9.884;2023-01-16T01:23:46;98995.38;;;5.82;79.39
16690;BME280;8458;52.220;9.884;2023-01-16T01:26:14;98985.22;;;5.78;79.29
16690;BME280;8458;52.220;9.884;2023-01-16T01:28:41;98978.91;;;5.72;80.00
16690;BME280;8458;52.220;9.884;2023-01-16T01:31:10;98973.66;;;5.75;79.56
16690;BME280;8458;52.220;9.884;2023-01-16T01:33:38;98979.97;;;5.76;80.59
16690;BME280;8458;52.220;9.884;2023-01-16T01:36:07;98977.81;;;5.78;80.15
16690;BME280;8458;52.220;9.884;2023-01-16T01:38:34;98969.56;;;5.78;80.37
16690;BME280;8458;52.220;9.884;2023-01-16T01:41:01;98969.00;;;5.71;80.92
16690;BME280;8458;52.220;9.884;2023-01-16T01:43:40;98967.31;;;5.70;80.91
16690;BME280;8458;52.220;9.884;2023-01-16T01:46:15;98954.97;;;5.67;80.83
16690;BME280;8458;52.220;9.884;2023-01-16T01:48:45;98947.53;;;5.68;80.33
16690;BME280;8458;52.220;9.884;2023-01-16T01:51:17;98950.84;;;5.75;80.56
16690;BME280;8458;52.220;9.884;2023-01-16T01:53:47;98945.34;;;5.75;80.42
16690;BME280;8458;52.220;9.884;2023-01-16T01:56:17;98943.69;;;5.69;80.74
16690;BME280;8458;52.220;9.884;2023-01-16T01:58:49;98932.94;;;5.78;80.50
16690;BME280;8458;52.220;9.884;2023-01-16T02:01:18;98921.13;;;5.77;80.26
16690;BME280;8458;52.220;9.884;2023-01-16T02:03:48;98925.56;;;5.63;80.93
16690;BME280;8458;52.220;9.884;2023-01-16T02:06:20;98918.41;;;5.56;81.31
16690;BME280;8458;52.220;9.884;2023-01-16T02:08:48;98911.25;;;5.55;81.44
16690;BME280;8458;52.220;9.884;2023-01-16T02:11:20;98907.13;;;5.58;81.40
16690;BME280;8458;52.220;9.884;2023-01-16T02:13:53;98907.66;;;5.65;81.05
16690;BME280;8458;52.220;9.884;2023-01-16T02:16:20;98897.50;;;5.55;81.38
16690;BME280;8458;52.220;9.884;2023-01-16T02:19:05;98896.94;;;5.48;81.66
16690;BME280;8458;52.220;9.884;2023-01-16T02:22:09;98894.75;;;5.50;81.50
16690;BME280;8458;52.220;9.884;2023-01-16T02:25:01;98901.88;;;5.51;81.63
16690;BME280;8458;52.220;9.884;2023-01-16T02:27:53;98902.72;;;5.42;81.63
16690;BME280;8458;52.220;9.884;2023-01-16T02:30:48;98884.00;;;5.44;82.12
16690;BME280;8458;52.220;9.884;2023-01-16T02:33:21;98882.09;;;5.39;82.06
16690;BME280;8458;52.220;9.884;2023-01-16T02:35:59;98879.63;;;5.43;82.63
16690;BME280;8458;52.220;9.884;2023-01-16T02:38:38;98867.53;;;5.38;82.55
16690;BME280;8458;52.220;9.884;2023-01-16T02:41:15;98863.94;;;5.33;83.11
16690;BME280;8458;52.220;9.884;2023-01-16T02:43:52;98862.84;;;5.34;82.93
16690;BME280;8458;52.220;9.884;2023-01-16T02:46:27;98859.28;;;5.28;83.64
16690;BME280;8458;52.220;9.884;2023-01-16T02:49:00;98852.44;;;5.20;83.70
16690;BME280;8458;52.220;9.884;2023-01-16T02:51:34;98847.47;;;5.33;83.48
16690;BME280;8458;52.220;9.884;2023-01-16T02:54:06;98843.59;;;5.39;83.14
16690;BME280;8458;52.220;9.884;2023-01-16T02:56:39;98843.59;;;5.39;82.86
16690;BME280;8458;52.220;9.884;2023-01-16T02:59:07;98834.53;;;5.44;83.07
16690;BME280;8458;52.220;9.884;2023-01-16T03:01:36;98832.34;;;5.41;82.98
16690;BME280;8458;52.220;9.884;2023-01-16T03:04:39;98827.66;;;5.46;82.75
16690;BME280;8458;52.220;9.884;2023-01-16T03:07:18;98826.56;;;5.42;83.11
16690;BME280;8458;52.220;9.884;2023-01-16T03:09:56;98826.56;;;5.42;83.49
16690;BME280;8458;52.220;9.884;2023-01-16T03:12:32;98812.28;;;5.30;85.06
16690;BME280;8458;52.220;9.884;2023-01-16T03:15:09;98808.44;;;5.31;85.95
16690;BME280;8458;52.220;9.884;2023-01-16T03:17:46;98811.19;;;5.26;85.90
16690;BME280;8458;52.220;9.884;2023-01-16T03:20:26;98795.25;;;5.33;84.88
16690;BME280;8458;52.220;9.884;2023-01-16T03:23:01;98797.19;;;5.17;85.87
16690;BME280;8458;52.220;9.884;2023-01-16T03:25:35;98787.53;;;5.30;86.05
16690;BME280;8458;52.220;9.884;2023-01-16T03:28:10;98785.38;;;5.27;86.40
16690;BME280;8458;52.220;9.884;2023-01-16T03:30:47;98783.69;;;5.36;85.88
16690;BME280;8458;52.220;9.884;2023-01-16T03:33:22;98778.75;;;5.43;84.94
16690;BME280;8458;52.220;9.884;2023-01-16T03:35:53;98783.72;;;5.41;85.73
16690;BME280;8458;52.220;9.884;2023-01-16T03:38:22;98777.09;;;5.42;85.54
16690;BME280;8458;52.220;9.884;2023-01-16T03:40:50;98767.19;;;5.46;85.10
16690;BME280;8458;52.220;9.884;2023-01-16T03:43:20;98754.53;;;5.45;84.84
16690;BME280;8458;52.220;9.884;2023-01-16T03:45:52;98748.53;;;5.38;85.02
16690;BME280;8458;52.220;9.884;2023-01-16T03:48:27;98752.91;;;5.44;84.24
16690;BME280;8458;52.220;9.884;2023-01-16T03:51:01;98750.16;;;5.39;84.39
16690;BME280;8458;52.220;9.884;2023-01-16T03:53:31;98744.09;;;5.42;84.47
16690;BME280;8458;52.220;9.884;2023-01-16T03:56:05;98744.94;;;5.37;84.45
16690;BME280;8458;52.220;9.884;2023-01-16T03:58:38;98747.41;;;5.39;84.30
16690;BME280;8458;52.220;9.884;2023-01-16T04:01:12;98740.56;;;5.36;84.06
16690;BME280;8458;52.220;9.884;2023-01-16T04:03:45;98737.78;;;5.42;83.50
16690;BME280;8458;52.220;9.884;2023-01-16T04:06:18;98732.59;;;5.35;83.62
16690;BME280;8458;52.220;9.884;2023-01-16T04:08:47;98733.16;;;5.32;83.87
16690;BME280;8458;52.220;9.884;2023-01-16T04:11:14;98730.94;;;5.34;83.66
16690;BME280;8458;52.220;9.884;2023-01-16T04:13:44;98732.59;;;5.35;83.79
16690;BME280;8458;52.220;9.884;2023-01-16T04:16:14;98712.78;;;5.33;83.69
16690;BME280;8458;52.220;9.884;2023-01-16T04:18:45;98713.66;;;5.23;84.46
16690;BME280;8458;52.220;9.884;2023-01-16T04:21:12;98713.94;;;5.16;84.84
16690;BME280;8458;52.220;9.884;2023-01-16T04:23:39;98707.91;;;5.14;85.26
16690;BME280;8458;52.220;9.884;2023-01-16T04:26:06;98703.78;;;5.12;85.59
16690;BME280;8458;52.220;9.884;2023-01-16T04:28:32;98700.22;;;5.16;85.44
16690;BME280;8458;52.220;9.884;2023-01-16T04:30:59;98703.50;;;5.13;85.43
16690;BME280;8458;52.220;9.884;2023-01-16T04:33:25;98701.34;;;5.05;85.93
16690;BME280;8458;52.220;9.884;2023-01-16T04:35:53;98702.41;;;5.09;85.73
16690;BME280;8458;52.220;9.884;2023-01-16T04:38:20;98691.97;;;5.16;85.18
16690;BME280;8458;52.220;9.884;2023-01-16T04:40:46;98671.63;;;5.12;85.30
16690;BME280;8458;52.220;9.884;2023-01-16T04:43:12;98670.53;;;5.13;85.55
16690;BME280;8458;52.220;9.884;2023-01-16T04:45:39;98671.09;;;5.20;84.74
16690;BME280;8458;52.220;9.884;2023-01-16T04:48:05;98667.25;;;5.11;85.10
16690;BME280;8458;52.220;9.884;2023-01-16T04:50:32;98661.75;;;5.11;85.45
16690;BME280;8458;52.220;9.884;2023-01-16T04:53:00;98653.50;;;5.16;84.84
16690;BME280;8458;52.220;9.884;2023-01-16T04:55:26;98653.78;;;5.15;85.05
16690;BME280;8458;52.220;9.884;2023-01-16T04:57:53;98654.03;;;5.18;84.75
16690;BME280;8458;52.220;9.884;2023-01-16T05:00:20;98658.97;;;5.21;84.54
16690;BME280;8458;52.220;9.884;2023-01-16T05:02:46;98639.75;;;5.21;84.49
16690;BME280;8458;52.220;9.884;2023-01-16T05:05:13;98643.59;;;5.20;84.68
16690;BME280;8458;52.220;9.884;2023-01-16T05:07:39;98637.53;;;5.29;84.42
16690;BME280;8458;52.220;9.884;2023-01-16T05:10:09;98631.50;;;5.21;84.45
16690;BME280;8458;52.220;9.884;2023-01-16T05:12:35;98631.78;;;5.20;84.32
16690;BME280;8458;52.220;9.884;2023-01-16T05:15:02;98627.09;;;5.26;84.49
16690;BME280;8458;52.220;9.884;2023-01-16T05:17:29;98629.56;;;5.27;83.94
16690;BME280;8458;52.220;9.884;2023-01-16T05:19:55;98631.50;;;5.27;84.04
16690;BME280;8458;52.220;9.884;2023-01-16T05:22:22;98630.97;;;5.19;84.29
16690;BME280;8458;52.220;9.884;2023-01-16T05:24:48;98620.78;;;5.25;84.08
16690;BME280;8458;52.220;9.884;2023-01-16T05:27:16;98627.13;;;5.20;84.05
16690;BME280;8458;52.220;9.884;2023-01-16T05:29:42;98617.16;;;5.30;83.90
16690;BME280;8458;52.220;9.884;2023-01-16T05:32:09;98616.09;;;5.26;84.16
16690;BME280;8458;52.220;9.884;2023-01-16T05:34:36;98616.13;;;5.20;84.23
16690;BME280;8458;52.220;9.884;2023-01-16T05:37:02;98612.53;;;5.25;84.47
16690;BME280;8458;52.220;9.884;2023-01-16T05:39:28;98600.47;;;5.21;84.42
16690;BME280;8458;52.220;9.884;2023-01-16T05:41:55;98605.69;;;5.12;84.77
16690;BME280;8458;52.220;9.884;2023-01-16T05:44:23;98604.88;;;5.12;85.32
16690;BME280;8458;52.220;9.884;2023-01-16T05:46:49;98601.84;;;5.13;85.88
16690;BME280;8458;52.220;9.884;2023-01-16T05:49:16;98596.41;;;4.98;87.19
16690;BME280;8458;52.220;9.884;2023-01-16T05:51:42;98590.34;;;5.01;88.42
16690;BME280;8458;52.220;9.884;2023-01-16T05:54:10;98592.03;;;4.92;90.45
16690;BME280;8458;52.220;9.884;2023-01-16T05:56:36;98586.53;;;4.92;91.63
16690;BME280;8458;52.220;9.884;2023-01-16T05:59:03;98588.19;;;4.93;91.97
16690;BME280;8458;52.220;9.884;2023-01-16T06:01:30;98576.09;;;4.89;92.65
16690;BME280;8458;52.220;9.884;2023-01-16T06:03:57;98571.44;;;4.89;92.56
16690;BME280;8458;52.220;9.884;2023-01-16T06:06:23;98572.81;;;4.92;92.49
16690;BME280;8458;52.220;9.884;2023-01-16T06:08:50;98562.97;;;4.80;92.81
16690;BME280;8458;52.220;9.884;2023-01-16T06:11:16;98558.53;;;4.84;93.25
16690;BME280;8458;52.220;9.884;2023-01-16T06:13:42;98547.03;;;4.72;94.18
16690;BME280;8458;52.220;9.884;2023-01-16T06:16:11;98553.06;;;4.69;94.67
16690;BME280;8458;52.220;9.884;2023-01-16T06:18:39;98548.16;;;4.71;94.50
16690;BME280;8458;52.220;9.884;2023-01-16T06:21:05;98542.63;;;4.76;94.08
16690;BME280;8458;52.220;9.884;2023-01-16T06:23:31;98537.97;;;4.82;93.81
16690;BME280;8458;52.220;9.884;2023-01-16T06:25:58;98543.19;;;4.78;93.91
16690;BME280;8458;52.220;9.884;2023-01-16T06:28:26;98529.44;;;4.78;94.09
16690;BME280;8458;52.220;9.884;2023-01-16T06:30:52;98525.59;;;4.84;94.17
16690;BME280;8458;52.220;9.884;2023-01-16T06:33:19;98518.72;;;4.87;94.01
16690;BME280;8458;52.220;9.884;2023-01-16T06:35:47;98518.69;;;4.92;93.88
16690;BME280;8458;52.220;9.884;2023-01-16T06:38:14;98498.41;;;4.88;93.89
16690;BME280;8458;52.220;9.884;2023-01-16T06:40:41;98493.44;;;4.90;94.26
16690;BME280;8458;52.220;9.884;2023-01-16T06:43:09;98491.00;;;4.83;94.17
16690;BME280;8458;52.220;9.884;2023-01-16T06:45:36;98491.56;;;4.80;94.60
16690;BME280;8458;52.220;9.884;2023-01-16T06:48:03;98483.63;;;4.79;94.79
16690;BME280;8458;52.220;9.884;2023-01-16T06:50:29;98477.31;;;4.73;94.94
16690;BME280;8458;52.220;9.884;2023-01-16T06:52:57;98475.69;;;4.67;95.30
16690;BME280;8458;52.220;9.884;2023-01-16T06:55:24;98474.06;;;4.61;95.45
16690;BME280;8458;52.220;9.884;2023-01-16T06:57:50;98465.84;;;4.51;95.90
16690;BME280;8458;52.220;9.884;2023-01-16T07:00:17;98471.63;;;4.44;96.67
16690;BME280;8458;52.220;9.884;2023-01-16T07:02:50;98467.50;;;4.41;96.58
16690;BME280;8458;52.220;9.884;2023-01-16T07:05:17;98466.41;;;4.47;97.03
16690;BME280;8458;52.220;9.884;2023-01-16T07:07:43;98463.09;;;4.56;96.44
16690;BME280;8458;52.220;9.884;2023-01-16T07:10:11;98461.72;;;4.53;96.28
16690;BME280;8458;52.220;9.884;2023-01-16T07:12:39;98452.66;;;4.58;95.99
16690;BME280;8458;52.220;9.884;2023-01-16T07:15:06;98457.88;;;4.54;96.02
16690;BME280;8458;52.220;9.884;2023-01-16T07:17:50;98454.88;;;4.56;96.06
16690;BME280;8458;52.220;9.884;2023-01-16T07:20:34;98439.50;;;4.55;95.98
16690;BME280;8458;52.220;9.884;2023-01-16T07:23:21;98441.13;;;4.61;95.54
16690;BME280;8458;52.220;9.884;2023-01-16T07:25:49;98441.09;;;4.66;95.08
16690;BME280;8458;52.220;9.884;2023-01-16T07:28:17;98441.41;;;4.59;95.72
16690;BME280;8458;52.220;9.884;2023-01-16T07:30:44;98427.41;;;4.51;95.82
16690;BME280;8458;52.220;9.884;2023-01-16T07:33:11;98426.28;;;4.57;95.07
16690;BME280;8458;52.220;9.884;2023-01-16T07:35:38;98426.84;;;4.54;95.38
16690;BME280;8458;52.220;9.884;2023-01-16T07:38:04;98416.16;;;4.52;95.31
16690;BME280;8458;52.220;9.884;2023-01-16T07:40:31;98408.22;;;4.56;94.98
16690;BME280;8458;52.220;9.884;2023-01-16T07:42:58;98401.31;;;4.58;94.91
16690;BME280;8458;52.220;9.884;2023-01-16T07:45:25;98401.03;;;4.65;94.54
16690;BME280;8458;52.220;9.884;2023-01-16T07:47:51;98399.13;;;4.60;94.32
16690;BME280;8458;52.220;9.884;2023-01-16T07:50:18;98397.16;;;4.66;94.13
16690;BME280;8458;52.220;9.884;2023-01-16T07:52:44;98398.00;;;4.66;93.79
16690;BME280;8458;52.220;9.884;2023-01-16T07:55:12;98391.13;;;4.69;93.37
16690;BME280;8458;52.220;9.884;2023-01-16T07:57:39;98386.72;;;4.73;93.32
16690;BME280;8458;52.220;9.884;2023-01-16T08:00:09;98376.03;;;4.66;92.73
16690;BME280;8458;52.220;9.884;2023-01-16T08:02:36;98377.16;;;4.60;92.77
16690;BME280;8458;52.220;9.884;2023-01-16T08:05:03;98371.91;;;4.69;92.39
16690;BME280;8458;52.220;9.884;2023-01-16T08:07:29;98363.38;;;4.71;91.67
16690;BME280;8458;52.220;9.884;2023-01-16T08:09:56;98360.34;;;4.77;91.04
16690;BME280;8458;52.220;9.884;2023-01-16T08:12:22;98360.88;;;4.79;91.25
16690;BME280;8458;52.220;9.884;2023-01-16T08:14:49;98359.75;;;4.85;91.27
16690;BME280;8458;52.220;9.884;2023-01-16T08:17:17;98358.88;;;4.90;90.49
16690;BME280;8458;52.220;9.884;2023-01-16T08:19:43;98352.25;;;4.96;90.49
16690;BME280;8458;52.220;9.884;2023-01-16T08:22:10;98353.06;;;4.97;90.48
16690;BME280;8458;52.220;9.884;2023-01-16T08:24:36;98346.53;;;4.93;90.83
16690;BME280;8458;52.220;9.884;2023-01-16T08:27:03;98336.69;;;4.81;90.96
16690;BME280;8458;52.220;9.884;2023-01-16T08:29:29;98329.56;;;4.80;91.08
16690;BME280;8458;52.220;9.884;2023-01-16T08:31:56;98322.47;;;4.74;91.61
16690;BME280;8458;52.220;9.884;2023-01-16T08:34:23;98316.97;;;4.74;91.19
16690;BME280;8458;52.220;9.884;2023-01-16T08:36:50;98305.72;;;4.71;91.84
16690;BME280;8458;52.220;9.884;2023-01-16T08:39:16;98299.97;;;4.72;91.54
16690;BME280;8458;52.220;9.884;2023-01-16T08:41:43;98295.84;;;4.75;91.60
16690;BME280;8458;52.220;9.884;2023-01-16T08:44:27;98290.59;;;4.78;91.45
16690;BME280;8458;52.220;9.884;2023-01-16T08:47:13;98280.06;;;4.91;90.95
16690;BME280;8458;52.220;9.884;2023-01-16T08:50:00;98281.44;;;4.93;90.46
16690;BME280;8458;52.220;9.884;2023-01-16T08:52:44;98276.75;;;4.94;90.16
16690;BME280;8458;52.220;9.884;2023-01-16T08:55:11;98286.00;;;5.03;90.03
16690;BME280;8458;52.220;9.884;2023-01-16T08:57:37;98279.47;;;4.99;89.31
16690;BME280;8458;52.220;9.884;2023-01-16T09:00:06;98289.53;;;5.09;89.72
16690;BME280;8458;52.220;9.884;2023-01-16T09:02:33;98278.22;;;5.15;89.34
16690;BME280;8458;52.220;9.884;2023-01-16T09:05:03;98275.47;;;5.15;88.60
16690;BME280;8458;52.220;9.884;2023-01-16T09:07:30;98280.38;;;5.24;88.89
16690;BME280;8458;52.220;9.884;2023-01-16T09:09:57;98274.81;;;5.29;88.58
16690;BME280;8458;52.220;9.884;2023-01-16T09:12:23;98267.03;;;5.36;88.07
16690;BME280;8458;52.220;9.884;2023-01-16T09:15:08;98272.50;;;5.41;88.19
16690;BME280;8458;52.220;9.884;2023-01-16T09:17:34;98254.09;;;5.42;87.13
16690;BME280;8458;52.220;9.884;2023-01-16T09:20:00;98258.66;;;5.51;86.90
16690;BME280;8458;52.220;9.884;2023-01-16T09:22:28;98255.97;;;5.46;86.71
16690;BME280;8458;52.220;9.884;2023-01-16T09:24:55;98252.16;;;5.42;87.38
16690;BME280;8458;52.220;9.884;2023-01-16T09:27:21;98249.31;;;5.52;86.61
16690;BME280;8458;52.220;9.884;2023-01-16T09:29:49;98242.28;;;5.41;86.42
16690;BME280;8458;52.220;9.884;2023-01-16T09:32:16;98247.78;;;5.41;85.90
16690;BME280;8458;52.220;9.884;2023-01-16T09:34:44;98233.47;;;5.39;86.12
16690;BME280;8458;52.220;9.884;2023-01-16T09:37:10;98226.38;;;5.38;86.18
16690;BME280;8458;52.220;9.884;2023-01-16T09:39:38;98224.50;;;5.33;85.87
16690;BME280;8458;52.220;9.884;2023-01-16T09:42:31;98206.00;;;5.39;86.04
16690;BME280;8458;52.220;9.884;2023-01-16T09:45:22;98212.38;;;5.34;86.12
16690;BME280;8458;52.220;9.884;2023-01-16T09:47:51;98203.63;;;5.32;86.59
16690;BME280;8458;52.220;9.884;2023-01-16T09:50:26;98193.69;;;5.36;85.96
16690;BME280;8458;52.220;9.884;2023-01-16T09:52:56;98186.84;;;5.34;85.11
16690;BME280;8458;52.220;9.884;2023-01-16T09:55:45;98187.94;;;5.33;85.55
16690;BME280;8458;52.220;9.884;2023-01-16T09:58:31;98167.59;;;5.34;86.11
16690;BME280;8458;52.220;9.884;2023-01-16T10:01:05;98167.91;;;5.32;85.22
16690;BME280;8458;52.220;9.884;2023-01-16T10:03:33;98154.66;;;5.34;85.30
16690;BME280;8458;52.220;9.884;2023-01-16T10:06:05;98155.44;;;5.40;85.43
16690;BME280;8458;52.220;9.884;2023-01-16T10:08:41;98147.78;;;5.37;84.99
16690;BME280;8458;52.220;9.884;2023-01-16T10:11:17;98129.06;;;5.39;85.65
16690;BME280;8458;52.220;9.884;2023-01-16T10:14:01;98120.31;;;5.37;85.34
16690;BME280;8458;52.220;9.884;2023-01-16T10:16:42;98111.94;;;5.47;84.19
16690;BME280;8458;52.220;9.884;2023-01-16T10:19:19;98120.63;;;5.54;83.51
16690;BME280;8458;52.220;9.884;2023-01-16T10:22:01;98102.53;;;5.53;83.22
16690;BME280;8458;52.220;9.884;2023-01-16T10:24:42;98092.13;;;5.50;81.89
16690;BME280;8458;52.220;9.884;2023-01-16T10:27:18;98085.19;;;5.53;82.74
16690;BME280;8458;52.220;9.884;2023-01-16T10:29:49;98065.16;;;5.71;82.19
16690;BME280;8458;52.220;9.884;2023-01-16T10:32:21;98069.38;;;5.64;82.77
16690;BME280;8458;52.220;9.884;2023-01-16T10:34:54;98061.22;;;5.59;82.38
16690;BME280;8458;52.220;9.884;2023-01-16T10:37:25;98062.03;;;5.59;83.71
16690;BME280;8458;52.220;9.884;2023-01-16T10:39:52;98042.19;;;5.62;82.20
16690;BME280;8458;52.220;9.884;2023-01-16T10:42:23;98040.94;;;5.73;81.80
16690;BME280;8458;52.220;9.884;2023-01-16T10:45:13;98033.44;;;5.79;80.68
16690;BME280;8458;52.220;9.884;2023-01-16T10:47:57;98028.53;;;5.76;81.48
16690;BME280;8458;52.220;9.884;2023-01-16T10:50:41;98030.97;;;5.78;81.57
16690;BME280;8458;52.220;9.884;2023-01-16T10:53:10;98024.28;;;5.84;81.21
16690;BME280;8458;52.220;9.884;2023-01-16T10:55:39;98014.13;;;5.84;80.08
16690;BME280;8458;52.220;9.884;2023-01-16T10:58:18;97998.63;;;5.88;80.05
16690;BME280;8458;52.220;9.884;2023-01-16T11:00:47;97995.81;;;5.93;79.58
16690;BME280;8458;52.220;9.884;2023-01-16T11:03:18;97992.94;;;5.85;79.46
16690;BME280;8458;52.220;9.884;2023-01-16T11:05:46;97980.06;;;5.80;79.59
16690;BME280;8458;52.220;9.884;2023-01-16T11:08:15;97967.06;;;5.86;79.19
16690;BME280;8458;52.220;9.884;2023-01-16T11:10:44;97966.19;;;5.90;79.23
16690;BME280;8458;52.220;9.884;2023-01-16T11:13:15;97946.56;;;5.97;78.77
16690;BME280;8458;52.220;9.884;2023-01-16T11:16:02;97937.53;;;5.91;78.16
16690;BME280;8458;52.220;9.884;2023-01-16T11:18:45;97928.88;;;5.84;78.18
16690;BME280;8458;52.220;9.884;2023-01-16T11:21:17;97907.81;;;5.93;77.90
16690;BME280;8458;52.220;9.884;2023-01-16T11:23:56;97898.09;;;6.01;77.56
16690;BME280;8458;52.220;9.884;2023-01-16T11:26:24;97895.03;;;6.03;77.78
16690;BME280;8458;52.220;9.884;2023-01-16T11:28:53;97877.69;;;6.02;78.05
16690;BME280;8458;52.220;9.884;2023-01-16T11:31:21;97882.28;;;6.07;76.69
16690;BME280;8458;52.220;9.884;2023-01-16T11:33:52;97866.50;;;6.13;76.59
16690;BME280;8458;52.220;9.884;2023-01-16T11:36:24;97868.84;;;6.19;76.33
16690;BME280;8458;52.220;9.884;2023-01-16T11:38:52;97859.06;;;6.13;76.23
16690;BME280;8458;52.220;9.884;2023-01-16T11:41:22;97848.06;;;6.13;75.66
16690;BME280;8458;52.220;9.884;2023-01-16T11:44:15;97832.47;;;6.22;75.70
16690;BME280;8458;52.220;9.884;2023-01-16T11:47:00;97837.38;;;6.12;75.96
16690;BME280;8458;52.220;9.884;2023-01-16T11:49:33;97835.84;;;6.05;75.13
16690;BME280;8458;52.220;9.884;2023-01-16T11:52:00;97825.44;;;6.16;75.72
16690;BME280;8458;52.220;9.884;2023-01-16T11:54:30;97814.75;;;6.15;74.96
16690;BME280;8458;52.220;9.884;2023-01-16T11:57:16;97820.84;;;6.12;75.21
16690;BME280;8458;52.220;9.884;2023-01-16T12:00:00;97813.94;;;6.14;75.53
16690;BME280;8458;52.220;9.884;2023-01-16T12:02:51;97806.59;;;6.09;75.16
16690;BME280;8458;52.220;9.884;2023-01-16T12:05:32;97804.56;;;6.15;75.11
16690;BME280;8458;52.220;9.884;2023-01-16T12:08:32;97795.00;;;6.13;75.36
16690;BME280;8458;52.220;9.884;2023-01-16T12:11:18;97778.69;;;6.16;74.62
16690;BME280;8458;52.220;9.884;2023-01-16T12:13:52;97772.19;;;6.12;75.15
16690;BME280;8458;52.220;9.884;2023-01-16T12:16:46;97773.72;;;6.18;75.22
16690;BME280;8458;52.220;9.884;2023-01-16T12:19:39;97758.50;;;6.07;74.73
16690;BME280;8458;52.220;9.884;2023-01-16T12:22:15;97760.75;;;6.05;75.51
16690;BME280;8458;52.220;9.884;2023-01-16T12:24:50;97743.84;;;6.12;75.72
16690;BME280;8458;52.220;9.884;2023-01-16T12:27:33;97750.97;;;5.99;76.41
16690;BME280;8458;52.220;9.884;2023-01-16T12:30:09;97738.34;;;5.98;76.75
16690;BME280;8458;52.220;9.884;2023-01-16T12:32:52;97730.81;;;6.03;77.47
16690;BME280;8458;52.220;9.884;2023-01-16T12:35:28;97715.03;;;6.09;77.15
16690;BME280;8458;52.220;9.884;2023-01-16T12:38:10;97712.78;;;6.11;77.26
16690;BME280;8458;52.220;9.884;2023-01-16T12:43:44;97686.78;;;6.17;77.04
16690;BME280;8458;52.220;9.884;2023-01-16T12:46:21;97688.78;;;6.25;77.32
16690;BME280;8458;52.220;9.884;2023-01-16T12:49:02;97681.69;;;6.24;76.75
16690;BME280;8458;52.220;9.884;2023-01-16T12:51:43;97682.50;;;6.25;75.32
16690;BME280;8458;52.220;9.884;2023-01-16T12:54:30;97675.13;;;6.34;76.06
16690;BME280;8458;52.220;9.884;2023-01-16T12:57:14;97677.06;;;6.34;75.10
16690;BME280;8458;52.220;9.884;2023-01-16T12:59:47;97669.41;;;6.44;75.05
16690;BME280;8458;52.220;9.884;2023-01-16T13:02:21;97655.00;;;6.48;75.29
16690;BME280;8458;52.220;9.884;2023-01-16T13:04:58;97652.13;;;6.53;75.41
16690;BME280;8458;52.220;9.884;2023-01-16T13:07:28;97648.75;;;6.56;74.80
16690;BME280;8458;52.220;9.884;2023-01-16T13:10:00;97654.44;;;6.59;75.56
16690;BME280;8458;52.220;9.884;2023-01-16T13:12:43;97640.19;;;6.57;74.97
16690;BME280;8458;52.220;9.884;2023-01-16T13:15:31;97656.22;;;6.55;74.70
16690;BME280;8458;52.220;9.884;2023-01-16T13:18:03;97633.03;;;6.56;75.10
16690;BME280;8458;52.220;9.884;2023-01-16T13:20:32;97619.28;;;6.56;75.13
16690;BME280;8458;52.220;9.884;2023-01-16T13:23:02;97644.94;;;6.43;74.75
16690;BME280;8458;52.220;9.884;2023-01-16T13:25:32;97629.53;;;6.42;74.58
16690;BME280;8458;52.220;9.884;2023-01-16T13:28:06;97630.03;;;6.44;75.22
16690;BME280;8458;52.220;9.884;2023-01-16T13:30:34;97629.84;;;6.40;75.56
16690;BME280;8458;52.220;9.884;2023-01-16T13:33:03;97626.78;;;6.42;75.64
16690;BME280;8458;52.220;9.884;2023-01-16T13:35:37;97642.28;;;6.38;75.04
16690;BME280;8458;52.220;9.884;2023-01-16T13:38:39;97625.41;;;6.31;74.89
16690;BME280;8458;52.220;9.884;2023-01-16T13:41:15;97624.84;;;6.20;75.24
16690;BME280;8458;52.220;9.884;2023-01-16T13:43:49;97617.06;;;6.22;75.48
16690;BME280;8458;52.220;9.884;2023-01-16T13:46:35;97623.19;;;6.19;75.33
16690;BME280;8458;52.220;9.884;2023-01-16T13:49:03;97612.19;;;6.19;75.44